Latest Weather Observations for Wyndham Airport

IDW60801

Issued at 11:35 am WST Friday 31 October 2014 (issued every 30 minutes, with the page automatically refreshed every 10 minutes)

About weather observations | Map of weather stations | Latest weather observations for WA | Other Formats
Station Details ID: 001006 Name: WYNDHAM AERO Lat: -15.51 Lon: 128.15 Height: 3.8 m
Data from the previous 72 hours. | See also: Recent months for locations in Western Australia
Date/Time
WST
Temp
°C
App
Temp
°C
Dew
Point
Rel
Hum
%
Delta-T
°C
Wind Press
QNH
hPa
Press
MSL
hPa
Rain
since 9 am
mm
Dir
 
Spd
km/h
Gust
km/h
Spd
kts
Gust
kts
31/11:30am 40.4 38.4 13.8 20 16.6 NW 17 28 9 15 1006.9 1006.9 0.0
31/11:00am 39.7 39.7 15.3 23 15.5 NNW 9 17 5 9 1007.5 1007.5 0.0
31/10:30am 39.4 39.8 16.3 25 14.9 NNE 9 13 5 7 1008.1 1008.1 0.0
31/10:00am 38.2 38.3 16.5 28 14.0 NNW 11 15 6 8 1008.6 1008.6 0.0
31/09:30am 37.4 37.3 16.9 30 13.2 N 13 19 7 10 1009.1 1009.1 0.0
31/09:00am 36.8 36.5 17.4 32 12.6 NW 15 24 8 13 1009.4 1009.4 0.0
31/08:30am 35.0 36.9 20.5 42 9.7 NW 11 19 6 10 1009.9 1009.9 0.0
31/08:00am 33.9 37.1 23.0 53 7.5 WNW 11 17 6 9 1010.0 1010.0 0.0
31/07:30am 32.9 36.5 23.0 56 6.8 W 9 15 5 8 1010.1 1010.1 0.0
31/07:00am 31.8 36.5 23.3 60 5.9 ENE 4 7 2 4 1009.9 1009.9 0.0
31/06:30am 30.2 33.9 22.6 63 5.2 E 7 9 4 5 1009.6 1009.6 0.0
31/06:00am 28.6 31.2 21.9 67 4.5 E 11 13 6 7 1009.3 1009.3 0.0
31/05:30am 27.6 29.8 21.9 71 3.8 ESE 13 17 7 9 1008.8 1008.8 0.0
31/05:00am 27.1 29.3 21.8 73 3.6 E 13 15 7 8 1008.3 1008.3 0.0
31/04:30am 27.1 29.3 21.8 73 3.5 E 13 17 7 9 1008.1 1008.1 0.0
31/04:00am 27.2 29.4 21.9 73 3.6 E 13 15 7 8 1007.8 1007.8 0.0
31/03:30am 27.2 29.9 22.2 74 3.4 E 11 13 6 7 1007.4 1007.4 0.0
31/03:00am 27.6 30.3 22.1 72 3.7 E 11 13 6 7 1007.1 1007.1 0.0
31/02:30am 28.0 30.7 22.2 70 3.9 E 11 13 6 7 1006.8 1006.8 0.0
31/02:00am 27.8 30.2 22.3 72 3.7 E 13 15 7 8 1006.7 1006.7 0.0
31/01:30am 28.2 30.2 22.2 70 4.0 E 15 17 8 9 1006.8 1006.8 0.0
31/01:00am 28.8 30.6 21.8 66 4.7 ESE 15 17 8 9 1006.9 1006.9 0.0
31/12:30am 29.1 32.6 21.8 64 4.9 E 6 13 3 7 1006.9 1006.9 0.0
31/12:00am 29.1 31.5 22.3 66 4.6 ESE 13 17 7 9 1007.2 1007.2 0.0
 
Date/Time
WST
Temp
°C
App
Temp
°C
Dew
Point
Rel
Hum
%
Delta-T
°C
Wind Press
QNH
hPa
Press
MSL
hPa
Rain
since 9 am
mm
Dir
 
Spd
km/h
Gust
km/h
Spd
kts
Gust
kts
30/11:30pm 29.5 31.5 22.2 65 4.9 SE 15 20 8 11 1007.3 1007.3 0.0
30/11:00pm 29.8 31.9 22.5 65 5.0 ESE 15 19 8 10 1007.6 1007.6 0.0
30/10:30pm 30.5 33.8 21.8 59 5.9 E 7 13 4 7 1007.9 1007.9 0.0
30/10:00pm 30.5 32.6 21.0 57 6.4 ENE 11 13 6 7 1008.1 1008.1 0.0
30/09:30pm 30.4 33.5 21.5 59 6.0 ESE 7 9 4 5 1008.1 1008.1 0.0
30/09:00pm 31.3 34.5 21.2 55 6.8 ESE 6 11 3 6 1008.2 1008.2 0.0
30/08:30pm 31.6 34.2 21.2 54 7.0 W 9 15 5 8 1007.9 1007.9 0.0
30/08:00pm 31.2 34.9 22.2 58 6.1 WSW 6 13 3 7 1007.5 1007.5 0.0
30/07:30pm 31.4 33.7 22.1 57 6.3 ENE 13 24 7 13 1007.2 1007.2 0.0
30/07:00pm 32.2 31.4 20.8 51 7.6 N 26 41 14 22 1006.4 1006.4 0.0
30/06:30pm 31.9 30.2 21.4 53 7.1 N 32 43 17 23 1006.2 1006.2 0.0
30/06:00pm 33.2 31.3 19.3 44 9.2 N 28 39 15 21 1005.9 1005.9 0.0
30/05:30pm 34.0 31.3 18.5 40 10.1 N 30 43 16 23 1005.5 1005.5 0.0
30/05:00pm 35.1 31.3 17.3 34 11.5 N 33 41 18 22 1005.2 1005.2 0.0
30/04:30pm 35.7 32.6 18.3 35 11.4 N 32 44 17 24 1005.2 1005.2 0.0
30/04:00pm 36.7 32.6 17.3 31 12.6 N 35 44 19 24 1004.9 1004.9 0.0
30/03:30pm 38.0 34.7 17.9 30 13.1 N 32 44 17 24 1004.7 1004.7 0.0
30/03:00pm 39.2 33.6 12.1 20 16.5 N 33 41 18 22 1004.6 1004.6 0.0
30/02:30pm 41.9 37.6 10.9 16 18.7 NNW 24 39 13 21 1004.7 1004.7 0.0
30/02:00pm 42.3 38.5 11.2 16 18.9 N 22 37 12 20 1004.9 1004.9 0.0
30/01:30pm 40.8 37.1 12.6 19 17.3 NNW 24 33 13 18 1005.4 1005.4 0.0
30/01:00pm 41.2 38.3 13.0 19 17.5 NNW 20 33 11 18 1005.6 1005.6 0.0
30/12:30pm 41.2 40.2 14.5 21 16.9 NW 13 24 7 13 1006.0 1006.0 0.0
30/12:00pm 41.3 39.7 13.8 20 17.2 N 15 26 8 14 1006.6 1006.6 0.0
30/11:30am 39.9 39.6 15.5 24 15.5 NNW 11 20 6 11 1007.3 1007.3 0.0
30/11:00am 39.8 38.2 16.1 25 15.2 N 19 22 10 12 1007.9 1007.9 0.0
30/10:30am 38.8 38.8 18.1 29 13.6 NNW 15 22 8 12 1008.3 1008.3 0.0
30/10:00am 37.9 39.8 19.8 35 12.1 WNW 9 17 5 9 1008.9 1008.9 0.0
30/09:30am 36.5 38.2 19.4 36 11.4 ENE 9 19 5 10 1009.5 1009.5 0.0
30/09:00am 35.3 36.9 19.2 38 10.6 ENE 9 15 5 8 1010.1 1010.1 0.0
30/08:30am 34.9 37.0 20.1 42 9.9 N 9 17 5 9 1010.5 1010.5 0.0
30/08:00am 33.8 34.7 20.9 46 8.7 N 17 24 9 13 1010.7 1010.7 0.0
30/07:30am 32.6 33.6 21.8 53 7.3 N 19 30 10 16 1010.6 1010.6 0.0
30/07:00am 32.2 33.0 21.4 53 7.3 NNE 19 24 10 13 1010.4 1010.4 0.0
30/06:30am 31.3 33.3 19.9 50 7.5 ESE 9 15 5 8 1010.2 1010.2 0.0
30/06:00am 30.4 32.9 20.3 54 6.7 E 7 13 4 7 1009.6 1009.6 0.0
30/05:30am 28.3 29.3 19.5 59 5.7 ESE 13 15 7 8 1009.2 1009.2 0.0
30/05:00am 27.2 28.2 17.7 56 6.0 E 9 15 5 8 1008.8 1008.8 0.0
30/04:30am 28.9 30.4 18.9 54 6.5 N 9 11 5 6 1008.2 1008.2 0.0
30/04:00am 29.0 30.2 19.0 54 6.5 NNW 11 13 6 7 1007.9 1007.9 0.0
30/03:30am 27.7 28.7 17.8 54 6.3 NW 9 11 5 6 1007.7 1007.7 0.0
30/03:00am 28.2 31.1 18.3 55 6.3 CALM 0 0 0 0 1007.5 1007.5 0.0
30/02:30am 28.7 31.6 19.1 56 6.2 WSW 2 6 1 3 1007.5 1007.5 0.0
30/02:00am 28.5 29.9 18.6 55 6.4 WSW 9 9 5 5 1007.5 1007.5 0.0
30/01:30am 29.1 29.8 18.8 53 6.6 NW 13 13 7 7 1007.5 1007.5 0.0
30/01:00am 28.2 29.4 18.3 55 6.3 WNW 9 9 5 5 1007.7 1007.7 0.0
30/12:30am 28.4 29.9 17.6 52 6.8 W 6 7 3 4 1008.0 1008.0 0.0
30/12:00am 28.7 31.2 18.2 53 6.7 W 2 6 1 3 1008.4 1008.4 0.0
 
Date/Time
WST
Temp
°C
App
Temp
°C
Dew
Point
Rel
Hum
%
Delta-T
°C
Wind Press
QNH
hPa
Press
MSL
hPa
Rain
since 9 am
mm
Dir
 
Spd
km/h
Gust
km/h
Spd
kts
Gust
kts
29/11:30pm 28.4 31.2 17.9 53 6.7 CALM 0 0 0 0 1008.6 1008.6 0.0
29/11:00pm 28.1 30.7 17.6 53 6.6 CALM 0 0 0 0 1008.8 1008.8 0.0
29/10:30pm 28.4 30.5 17.3 51 7.0 ENE 2 6 1 3 1009.0 1009.0 0.0
29/10:00pm 29.1 30.9 17.3 49 7.5 S 4 7 2 4 1009.4 1009.4 0.0
29/09:30pm 30.3 32.4 16.3 42 8.7 CALM 0 0 0 0 1009.6 1009.6 0.0
29/09:00pm 31.4 32.3 16.2 40 9.5 NE 6 9 3 5 1009.6 1009.6 0.0
29/08:30pm 32.2 33.6 16.5 39 9.9 NNW 4 9 2 5 1009.5 1009.5 0.0
29/08:00pm 32.9 34.4 15.8 35 10.7 W 2 7 1 4 1009.1 1009.1 0.0
29/07:30pm 33.5 33.2 16.4 36 10.8 NNW 13 19 7 10 1008.8 1008.8 0.0
29/07:00pm 34.0 31.5 14.0 30 12.2 N 20 26 11 14 1008.6 1008.6 0.0
29/06:30pm 33.4 31.1 16.7 36 10.6 N 24 35 13 19 1008.4 1008.4 0.0
29/06:00pm 33.7 30.8 16.1 34 11.1 N 26 37 14 20 1008.2 1008.2 0.0
29/05:30pm 34.2 31.1 15.6 32 11.6 N 26 35 14 19 1007.8 1007.8 0.0
29/05:00pm 35.1 31.7 15.9 31 12.1 N 28 37 15 20 1007.3 1007.3 0.0
29/04:30pm 36.2 31.7 15.3 28 13.1 N 33 43 18 23 1007.1 1007.1 0.0
29/04:00pm 37.3 33.7 15.2 27 13.9 N 28 39 15 21 1006.9 1006.9 0.0
29/03:30pm 37.9 33.5 15.1 26 14.4 N 32 43 17 23 1006.9 1006.9 0.0
29/03:00pm 38.4 34.7 16.1 27 14.3 N 30 37 16 20 1006.9 1006.9 0.0
29/02:30pm 40.0 37.1 16.2 24 15.3 N 26 35 14 19 1007.0 1007.0 0.0
29/02:00pm 40.2 36.8 15.7 23 15.7 N 28 35 15 19 1007.2 1007.2 0.0
29/01:30pm 40.1 36.5 16.3 24 15.3 NNW 30 46 16 25 1007.4 1007.4 0.0
29/01:29pm 40.0 36.8 16.2 24 15.3 NNW 28 41 15 22 1007.5 1007.5 0.0
29/01:00pm 40.4 39.6 15.2 22 16.0 ENE 13 22 7 12 1008.0 1008.0 0.0
29/12:30pm 40.0 37.8 14.9 22 15.9 NE 20 33 11 18 1008.4 1008.4 0.0
29/12:00pm 39.4 38.7 14.4 22 15.7 NE 11 26 6 14 1009.0 1009.0 0.0
29/11:30am 40.0 37.9 13.5 21 16.4 N 17 28 9 15 1009.4 1009.4 0.0
29/11:00am 39.7 39.2 16.0 25 15.2 NNE 13 20 7 11 1010.0 1010.0 0.0
29/10:30am 39.2 37.9 14.9 23 15.3 NNE 15 20 8 11 1010.5 1010.5 0.0
29/10:00am 37.8 39.2 17.7 30 13.1 SW 7 13 4 7 1010.7 1010.7 0.0
29/09:30am 37.0 38.3 17.6 32 12.6 WSW 7 17 4 9 1011.1 1011.1 0.0
29/09:00am 36.0 37.9 19.0 36 11.2 WSW 7 13 4 7 1011.2 1011.2 0.0
29/08:30am 34.8 36.6 18.8 39 10.5 WSW 7 11 4 6 1011.5 1011.5 0.0
29/08:00am 33.6 35.8 19.3 43 9.4 NW 6 7 3 4 1011.6 1011.6 0.0
29/07:30am 32.1 34.3 20.4 50 7.8 ENE 9 11 5 6 1011.6 1011.6 0.0
29/07:00am 31.1 33.8 21.3 56 6.6 ESE 9 13 5 7 1011.5 1011.5 0.0
29/06:30am 29.4 31.9 22.4 66 4.7 E 13 17 7 9 1011.4 1011.4 0.0
29/06:00am 28.3 30.7 22.3 70 4.1 E 13 19 7 10 1011.2 1011.2 0.0
29/05:30am 27.3 29.6 22.0 73 3.6 ESE 13 20 7 11 1010.9 1010.9 0.0
29/05:00am 26.2 28.0 21.8 77 2.9 E 15 17 8 9 1010.7 1010.7 0.0
29/04:30am 26.7 28.9 21.9 75 3.2 E 13 17 7 9 1010.2 1010.2 0.0
29/04:00am 26.9 28.8 22.1 75 3.2 E 15 17 8 9 1010.0 1010.0 0.0
29/03:30am 27.2 28.6 21.9 73 3.6 E 17 20 9 11 1009.4 1009.4 0.0
29/03:00am 27.5 29.3 21.1 68 4.2 E 13 17 7 9 1009.2 1009.2 0.0
29/02:30am 27.1 28.7 20.7 68 4.2 E 13 20 7 11 1009.0 1009.0 0.0
29/02:00am 27.2 28.6 20.3 66 4.5 E 13 20 7 11 1008.8 1008.8 0.0
29/01:30am 27.3 28.3 19.4 62 5.1 E 13 20 7 11 1008.7 1008.7 0.0
29/01:00am 27.7 27.7 19.0 59 5.6 E 17 26 9 14 1008.7 1008.7 0.0
29/12:30am 27.9 28.5 17.7 53 6.4 E 11 15 6 8 1008.5 1008.5 0.0
29/12:00am 28.3 27.9 18.1 54 6.5 E 17 19 9 10 1008.4 1008.4 0.0
 
Date/Time
WST
Temp
°C
App
Temp
°C
Dew
Point
Rel
Hum
%
Delta-T
°C
Wind Press
QNH
hPa
Press
MSL
hPa
Rain
since 9 am
mm
Dir
 
Spd
km/h
Gust
km/h
Spd
kts
Gust
kts
28/11:30pm 28.8 28.5 17.3 49 7.2 E 15 19 8 10 1008.5 1008.5 0.0
28/11:00pm 29.2 28.6 16.7 46 7.8 E 15 17 8 9 1008.5 1008.5 0.0
28/10:30pm 29.5 29.4 16.0 44 8.4 ESE 11 15 6 8 1008.6 1008.6 0.0
28/10:00pm 28.8 27.2 12.7 37 9.5 ESE 13 13 7 7 1008.8 1008.8 0.0
28/09:30pm 29.7 28.9 13.0 35 9.9 SE 9 11 5 6 1008.9 1008.9 0.0
28/09:00pm 30.4 30.4 13.7 36 10.0 E 6 7 3 4 1008.7 1008.7 0.0
28/08:30pm 31.7 32.2 13.9 34 10.8 SSW 4 9 2 5 1008.7 1008.7 0.0
28/08:00pm 32.5 32.1 14.1 32 11.2 SSW 9 13 5 7 1008.6 1008.6 0.0
28/07:30pm 33.7 32.2 13.2 29 12.4 WSW 13 17 7 9 1008.4 1008.4 0.0
28/07:00pm 34.5 32.9 12.8 27 13.1 NNW 13 19 7 10 1008.1 1008.1 0.0
28/06:30pm 34.6 32.7 12.9 27 13.1 N 15 20 8 11 1007.9 1007.9 0.0
28/06:00pm 35.0 32.8 14.3 29 12.8 N 19 24 10 13 1007.6 1007.6 0.0
28/05:30pm 35.5 32.8 13.6 26 13.4 N 20 26 11 14 1007.2 1007.2 0.0
28/05:00pm 36.4 33.2 13.2 25 14.2 N 22 32 12 17 1006.9 1006.9 0.0
28/04:30pm 37.4 33.0 12.8 23 15.0 N 28 37 15 20 1006.6 1006.6 0.0
28/04:00pm 37.9 33.4 13.8 23 14.9 N 30 39 16 21 1006.5 1006.5 0.0
28/03:30pm 39.5 35.6 14.5 23 15.7 N 28 39 15 21 1006.3 1006.3 0.0
28/03:00pm 39.3 36.5 14.3 22 15.7 N 22 33 12 18 1006.2 1006.2 0.0
28/02:30pm 40.1 37.9 15.0 23 15.9 NNW 20 32 11 17 1006.3 1006.3 0.0
28/02:00pm 40.1 37.0 15.7 24 15.6 NNW 26 33 14 18 1006.5 1006.5 0.0
28/01:30pm 40.5 37.5 10.7 17 17.8 N 17 26 9 14 1007.0 1007.0 0.0
28/01:00pm 41.6 38.2 12.5 18 17.9 E 22 30 12 16 1007.3 1007.3 0.0
28/12:30pm 40.6 37.6 12.5 19 17.2 ENE 20 39 11 21 1007.9 1007.9 0.0
28/12:27pm 40.6 36.3 13.3 20 16.9 ESE 28 43 15 23 1007.8 1007.8 0.0
28/12:00pm 39.9 38.3 12.7 20 16.7 NNE 13 22 7 12 1008.4 1008.4 0.0

Other Formats:

Comma delimited format used in spreadsheet applications
http://www.bom.gov.au/fwo/IDW60801/IDW60801.95214.axf

JavaScript Object Notation format (JSON) in row-major order
http://www.bom.gov.au/fwo/IDW60801/IDW60801.95214.json